createdAt,value
2022-11-18T00:00:55.812Z,15.50
2022-11-18T00:03:22.427Z,16.15
2022-11-18T00:05:56.737Z,15.50
2022-11-18T00:08:24.051Z,14.95
2022-11-18T00:10:50.668Z,14.70
2022-11-18T00:13:35.937Z,13.98
2022-11-18T00:16:03.545Z,15.18
2022-11-18T00:18:29.944Z,14.32
2022-11-18T00:21:01.041Z,14.63
2022-11-18T00:23:27.468Z,14.88
2022-11-18T00:25:53.921Z,14.30
2022-11-18T00:28:20.315Z,14.48
2022-11-18T00:30:46.718Z,15.38
2022-11-18T00:33:13.139Z,14.90
2022-11-18T00:35:39.544Z,15.65
2022-11-18T00:38:05.932Z,15.95
2022-11-18T00:40:32.309Z,15.07
2022-11-18T00:42:58.765Z,15.57
2022-11-18T00:45:25.203Z,15.50
2022-11-18T00:47:51.662Z,16.23
2022-11-18T00:50:18.064Z,15.48
2022-11-18T00:52:44.467Z,16.38
2022-11-18T00:55:10.889Z,16.45
2022-11-18T00:57:37.355Z,15.55
2022-11-18T01:00:04.297Z,15.38
2022-11-18T01:02:30.696Z,16.10
2022-11-18T01:04:57.083Z,16.60
2022-11-18T01:07:23.581Z,16.65
2022-11-18T01:09:50.115Z,16.00
2022-11-18T01:12:35.315Z,17.45
2022-11-18T01:15:01.790Z,17.65
2022-11-18T01:17:30.931Z,17.27
2022-11-18T01:19:57.495Z,16.90
2022-11-18T01:22:23.898Z,17.35
2022-11-18T01:24:50.290Z,18.00
2022-11-18T01:27:16.726Z,18.58
2022-11-18T01:29:43.196Z,18.25
2022-11-18T01:32:23.996Z,18.63
2022-11-18T01:34:51.367Z,17.10
2022-11-18T01:37:17.786Z,17.02
2022-11-18T01:39:44.185Z,17.73
2022-11-18T01:42:15.872Z,16.75
2022-11-18T01:45:00.766Z,17.20
2022-11-18T01:47:30.078Z,18.00
2022-11-18T01:49:56.720Z,17.52
2022-11-18T01:52:23.436Z,17.40
2022-11-18T01:54:55.807Z,18.42
2022-11-18T01:57:23.270Z,19.42
2022-11-18T01:59:54.091Z,19.00
2022-11-18T02:02:20.929Z,19.58
2022-11-18T02:04:49.012Z,19.48
2022-11-18T02:07:15.844Z,20.20
2022-11-18T02:09:42.376Z,18.23
2022-11-18T02:12:08.887Z,20.02
2022-11-18T02:14:37.788Z,19.70
2022-11-18T02:17:23.050Z,19.67
2022-11-18T02:20:27.087Z,19.38
2022-11-18T02:23:22.095Z,19.58
2022-11-18T02:26:25.764Z,19.83
2022-11-18T02:29:03.346Z,19.05
2022-11-18T02:31:39.586Z,19.70
2022-11-18T02:34:16.481Z,19.52
2022-11-18T02:37:12.662Z,19.35
2022-11-18T02:39:54.474Z,19.40
2022-11-18T02:42:22.051Z,20.63
2022-11-18T02:44:53.244Z,19.58
2022-11-18T02:47:20.974Z,19.13
2022-11-18T02:49:51.130Z,18.35
2022-11-18T02:52:18.286Z,19.13
2022-11-18T02:54:46.284Z,18.70
2022-11-18T02:57:13.870Z,20.23
2022-11-18T02:59:40.304Z,19.67
2022-11-18T03:02:06.784Z,19.02
2022-11-18T03:04:34.303Z,19.27
2022-11-18T03:07:08.025Z,19.52
2022-11-18T03:09:37.682Z,20.38
2022-11-18T03:13:01.299Z,19.45
2022-11-18T03:18:36.949Z,18.52
2022-11-18T03:21:09.515Z,20.08
2022-11-18T03:26:36.037Z,19.13
2022-11-18T03:29:06.595Z,18.67
2022-11-18T03:31:42.268Z,19.35
2022-11-18T03:34:13.153Z,19.83
2022-11-18T03:36:42.477Z,19.70
2022-11-18T03:39:10.585Z,19.60
2022-11-18T03:41:41.105Z,19.67
2022-11-18T03:44:11.408Z,20.75
2022-11-18T03:46:44.466Z,20.08
2022-11-18T03:49:17.251Z,20.60
2022-11-18T03:51:48.337Z,18.52
2022-11-18T03:54:20.167Z,20.25
2022-11-18T03:56:51.456Z,19.40
2022-11-18T03:59:41.362Z,18.55
2022-11-18T04:02:19.495Z,19.25
2022-11-18T04:04:48.322Z,19.17
2022-11-18T04:07:36.610Z,19.48
2022-11-18T04:10:09.363Z,18.33
2022-11-18T04:12:47.312Z,19.13
2022-11-18T04:15:13.810Z,19.83
2022-11-18T04:17:42.983Z,19.85
2022-11-18T04:20:20.657Z,20.23
2022-11-18T04:22:47.264Z,19.67
2022-11-18T04:25:14.432Z,18.80
2022-11-18T04:27:40.906Z,19.38
2022-11-18T04:30:07.984Z,19.10
2022-11-18T04:32:34.892Z,19.20
2022-11-18T04:35:02.191Z,20.08
2022-11-18T04:37:28.595Z,20.33
2022-11-18T04:39:55.024Z,20.77
2022-11-18T04:42:21.516Z,19.77
2022-11-18T04:44:47.974Z,20.33
2022-11-18T04:47:14.381Z,20.38
2022-11-18T04:49:40.793Z,20.08
2022-11-18T04:52:07.251Z,19.35
2022-11-18T04:54:33.680Z,20.73
2022-11-18T04:57:00.180Z,19.83
2022-11-18T04:59:28.572Z,19.05
2022-11-18T05:01:55.987Z,19.85
2022-11-18T05:04:25.430Z,19.23
2022-11-18T05:06:52.259Z,18.48
2022-11-18T05:09:19.897Z,19.52
2022-11-18T05:12:05.040Z,18.63
2022-11-18T05:14:31.670Z,16.90
2022-11-18T05:16:59.909Z,17.42
2022-11-18T05:19:26.537Z,17.50
2022-11-18T05:21:53.618Z,18.48
2022-11-18T05:24:20.546Z,18.73
2022-11-18T05:26:47.048Z,17.55
2022-11-18T05:29:13.513Z,17.10
2022-11-18T05:31:39.959Z,17.95
2022-11-18T05:34:06.398Z,17.90
2022-11-18T05:36:32.835Z,17.73
2022-11-18T05:39:00.106Z,17.88
2022-11-18T05:41:45.323Z,17.70
2022-11-18T05:44:11.986Z,17.25
2022-11-18T05:46:39.023Z,16.25
2022-11-18T05:49:05.717Z,16.00
2022-11-18T05:51:32.081Z,15.65
2022-11-18T05:53:58.660Z,16.58
2022-11-18T05:56:29.533Z,16.02
2022-11-18T05:58:56.322Z,16.65
2022-11-18T06:01:28.067Z,16.15
2022-11-18T06:03:54.803Z,16.00
2022-11-18T06:06:22.938Z,15.95
2022-11-18T06:08:57.114Z,16.63
2022-11-18T06:11:23.865Z,15.55
2022-11-18T06:13:56.139Z,14.98
2022-11-18T06:16:25.715Z,15.05
2022-11-18T06:18:52.292Z,15.82
2022-11-18T06:21:18.725Z,14.93
2022-11-18T06:23:45.422Z,15.85
2022-11-18T06:26:14.028Z,14.68
2022-11-18T06:28:40.624Z,14.90
2022-11-18T06:31:07.364Z,15.80
2022-11-18T06:33:33.732Z,14.63
2022-11-18T06:36:00.143Z,13.70
2022-11-18T06:38:26.610Z,13.15
2022-11-18T06:40:53.013Z,13.32
2022-11-18T06:43:38.056Z,12.73
2022-11-18T06:46:24.313Z,13.32
2022-11-18T06:48:51.270Z,12.77
2022-11-18T06:51:17.800Z,12.93
2022-11-18T06:53:44.301Z,12.52
2022-11-18T06:56:12.930Z,13.07
2022-11-18T06:58:39.907Z,11.93
2022-11-18T07:01:22.651Z,12.70
2022-11-18T07:06:18.795Z,11.95
2022-11-18T07:08:45.547Z,11.95
2022-11-18T07:11:15.449Z,11.98
2022-11-18T07:13:43.750Z,11.70
2022-11-18T07:16:17.753Z,12.05
2022-11-18T07:18:45.769Z,11.55
2022-11-18T07:21:20.516Z,10.88
2022-11-18T07:23:47.705Z,12.93
2022-11-18T07:26:14.923Z,12.55
2022-11-18T07:28:41.890Z,12.10
2022-11-18T07:31:13.196Z,12.45
2022-11-18T07:33:40.741Z,12.38
2022-11-18T07:36:10.346Z,13.10
2022-11-18T07:38:37.071Z,12.38
2022-11-18T07:41:07.719Z,11.77
2022-11-18T07:43:35.345Z,12.35
2022-11-18T07:46:16.937Z,11.52
2022-11-18T07:48:44.707Z,12.70
2022-11-18T07:51:11.747Z,12.10
2022-11-18T07:53:38.341Z,12.23
2022-11-18T07:56:05.233Z,11.98
2022-11-18T07:58:31.848Z,12.50
2022-11-18T08:00:58.518Z,11.30
2022-11-18T08:03:28.699Z,11.90
2022-11-18T08:06:02.528Z,11.98
2022-11-18T08:08:29.056Z,11.63
2022-11-18T08:10:57.134Z,12.35
2022-11-18T08:13:23.861Z,12.32
2022-11-18T08:15:50.398Z,13.07
2022-11-18T08:18:16.829Z,12.95
2022-11-18T08:20:44.942Z,13.40
2022-11-18T08:23:12.256Z,13.20
2022-11-18T08:25:38.816Z,14.25
2022-11-18T08:28:05.344Z,14.90
2022-11-18T08:30:33.550Z,14.20
2022-11-18T08:33:00.080Z,15.23
2022-11-18T08:35:29.982Z,15.73
2022-11-18T08:37:56.975Z,14.40
2022-11-18T08:40:23.917Z,14.52
2022-11-18T08:42:50.405Z,14.57
2022-11-18T08:45:17.028Z,15.35
2022-11-18T08:47:43.653Z,14.80
2022-11-18T08:50:11.308Z,14.95
2022-11-18T08:52:37.775Z,14.57
2022-11-18T08:55:04.864Z,15.10
2022-11-18T08:57:31.485Z,14.90
2022-11-18T08:59:57.951Z,15.65
2022-11-18T09:02:24.558Z,14.80
2022-11-18T09:04:51.709Z,15.85
2022-11-18T09:07:19.213Z,15.68
2022-11-18T09:09:45.747Z,14.90
2022-11-18T09:12:17.403Z,15.80
2022-11-18T09:17:31.125Z,16.92
2022-11-18T09:19:57.540Z,17.00
2022-11-18T09:22:23.938Z,17.17
2022-11-18T09:24:50.503Z,17.13
2022-11-18T09:27:17.715Z,16.42
2022-11-18T09:29:45.181Z,16.98
2022-11-18T09:32:11.736Z,17.05
2022-11-18T09:34:38.163Z,16.40
2022-11-18T09:37:06.348Z,17.08
2022-11-18T09:39:37.032Z,18.05
2022-11-18T09:42:38.840Z,17.15
2022-11-18T09:45:22.375Z,16.73
2022-11-18T09:47:50.865Z,17.65
2022-11-18T09:53:17.518Z,16.98
2022-11-18T09:55:44.747Z,17.23
2022-11-18T09:58:37.647Z,17.80
2022-11-18T10:03:32.340Z,18.23
2022-11-18T10:06:22.021Z,18.77
2022-11-18T10:09:02.840Z,18.58
2022-11-18T10:11:42.733Z,18.98
2022-11-18T10:14:30.337Z,20.15
2022-11-18T10:17:19.133Z,19.90
2022-11-18T10:19:57.762Z,20.08
2022-11-18T10:22:32.169Z,19.77
2022-11-18T10:25:00.723Z,20.15
2022-11-18T10:27:38.589Z,20.40
2022-11-18T10:30:12.826Z,20.23
2022-11-18T10:32:55.658Z,19.30
2022-11-18T10:35:31.171Z,18.98
2022-11-18T10:38:16.606Z,18.80
2022-11-18T10:41:03.507Z,19.55
2022-11-18T10:43:51.406Z,18.92
2022-11-18T10:46:30.235Z,19.35
2022-11-18T10:49:08.963Z,17.77
2022-11-18T10:51:41.323Z,17.52
2022-11-18T10:54:10.185Z,18.23
2022-11-18T10:56:57.798Z,19.63
2022-11-18T10:59:30.335Z,17.67
2022-11-18T11:01:58.921Z,18.55
2022-11-18T11:04:27.242Z,18.30
2022-11-18T11:06:53.781Z,18.05
2022-11-18T11:09:28.570Z,18.75
2022-11-18T11:11:57.989Z,18.10
2022-11-18T11:14:47.777Z,18.98
2022-11-18T11:17:19.960Z,19.10
2022-11-18T11:20:02.962Z,18.30
2022-11-18T11:22:29.349Z,18.08
2022-11-18T11:24:56.554Z,17.13
2022-11-18T11:30:20.550Z,16.55
2022-11-18T11:33:05.510Z,17.80
2022-11-18T11:36:03.991Z,17.83
2022-11-18T11:38:58.633Z,18.40
2022-11-18T11:41:46.124Z,16.70
2022-11-18T11:44:23.708Z,18.05
2022-11-18T11:47:21.928Z,18.50
2022-11-18T11:49:54.405Z,18.00
2022-11-18T11:55:18.314Z,16.95
2022-11-18T11:57:51.456Z,18.15
2022-11-18T12:00:19.817Z,18.15
2022-11-18T12:03:07.568Z,18.05
2022-11-18T12:05:36.776Z,16.48
2022-11-18T12:08:08.531Z,18.55
2022-11-18T12:10:54.043Z,17.33
2022-11-18T12:13:25.860Z,18.27
2022-11-18T12:16:14.375Z,17.85
2022-11-18T12:18:46.598Z,17.13
2022-11-18T12:21:47.390Z,17.45
2022-11-18T12:24:30.737Z,17.40
2022-11-18T12:27:05.002Z,17.38
2022-11-18T12:29:43.296Z,18.38
2022-11-18T12:32:35.274Z,17.83
2022-11-18T12:35:05.359Z,17.30
2022-11-18T12:37:31.734Z,18.50
2022-11-18T12:40:00.049Z,19.02
2022-11-18T12:43:03.948Z,18.30
2022-11-18T12:45:43.298Z,18.25
2022-11-18T12:48:29.206Z,18.15
2022-11-18T12:50:57.843Z,18.88
2022-11-18T12:53:40.363Z,17.63
2022-11-18T12:56:25.097Z,18.30
2022-11-18T12:58:54.044Z,17.02
2022-11-18T13:01:23.778Z,17.65
2022-11-18T13:03:50.544Z,17.73
2022-11-18T13:06:26.046Z,17.58
2022-11-18T13:08:55.992Z,17.98
2022-11-18T13:11:41.104Z,18.33
2022-11-18T13:14:34.438Z,17.33
2022-11-18T13:17:19.368Z,17.55
2022-11-18T13:19:56.882Z,18.83
2022-11-18T13:22:42.418Z,18.38
2022-11-18T13:25:26.083Z,17.60
2022-11-18T13:28:04.071Z,17.23
2022-11-18T13:30:32.822Z,18.67
2022-11-18T13:32:59.536Z,18.92
2022-11-18T13:35:27.302Z,16.45
2022-11-18T13:37:54.880Z,18.33
2022-11-18T13:40:22.582Z,17.40
2022-11-18T13:42:50.992Z,17.55
2022-11-18T13:45:18.016Z,17.52
2022-11-18T13:47:53.224Z,16.15
2022-11-18T13:50:25.436Z,16.13
2022-11-18T13:52:57.993Z,16.75
2022-11-18T13:58:25.843Z,15.40
2022-11-18T14:01:01.524Z,16.33
2022-11-18T14:03:46.954Z,17.25
2022-11-18T14:06:24.250Z,16.65
2022-11-18T14:08:50.635Z,15.35
2022-11-18T14:11:35.024Z,16.08
2022-11-18T14:14:01.501Z,15.85
2022-11-18T14:16:34.007Z,14.98
2022-11-18T14:21:32.219Z,15.18
2022-11-18T14:25:20.343Z,15.38
2022-11-18T14:27:49.208Z,15.60
2022-11-18T14:30:30.985Z,16.08
2022-11-18T14:33:03.470Z,16.25
2022-11-18T14:38:35.345Z,16.75
2022-11-18T14:40:54.089Z,16.45
2022-11-18T14:43:20.522Z,15.77
2022-11-18T14:45:46.940Z,15.75
2022-11-18T14:48:15.717Z,13.82
2022-11-18T14:50:42.152Z,13.90
2022-11-18T14:53:11.547Z,14.38
2022-11-18T14:55:37.982Z,14.45
2022-11-18T14:58:04.444Z,15.23
2022-11-18T15:00:30.953Z,14.57
2022-11-18T15:02:57.385Z,13.95
2022-11-18T15:05:23.854Z,13.15
2022-11-18T15:07:50.340Z,13.30
2022-11-18T15:10:16.963Z,13.52
2022-11-18T15:12:43.347Z,13.60
2022-11-18T15:15:10.079Z,14.52
2022-11-18T15:17:36.530Z,13.80
2022-11-18T15:20:04.346Z,13.25
2022-11-18T15:22:30.806Z,16.98
2022-11-18T15:24:57.197Z,14.88
2022-11-18T15:27:23.614Z,13.68
2022-11-18T15:29:50.412Z,15.55
2022-11-18T15:32:16.810Z,15.63
2022-11-18T15:34:43.185Z,15.95
2022-11-18T15:37:12.896Z,16.98
2022-11-18T15:39:39.395Z,17.35
2022-11-18T15:42:05.880Z,18.15
2022-11-18T15:44:32.316Z,19.45
2022-11-18T15:47:00.133Z,22.15
2022-11-18T15:49:26.573Z,22.63
2022-11-18T15:51:52.997Z,23.02
2022-11-18T15:54:19.882Z,23.20
2022-11-18T15:56:46.557Z,22.63
2022-11-18T15:59:13.925Z,23.48
2022-11-18T16:01:42.748Z,23.70
2022-11-18T16:04:11.297Z,23.65
2022-11-18T16:06:38.036Z,23.30
2022-11-18T16:09:05.743Z,23.40
2022-11-18T16:11:51.078Z,22.88
2022-11-18T16:14:20.146Z,23.55
2022-11-18T16:16:48.563Z,24.48
2022-11-18T16:19:17.081Z,22.75
2022-11-18T16:21:48.783Z,23.60
2022-11-18T16:24:18.928Z,18.80
2022-11-18T16:26:45.612Z,21.73
2022-11-18T16:29:13.092Z,24.38
2022-11-18T16:31:43.617Z,23.23
2022-11-18T16:34:17.461Z,22.38
2022-11-18T16:36:45.773Z,23.17
2022-11-18T16:39:14.287Z,22.70
2022-11-18T16:41:41.289Z,20.88
2022-11-18T16:44:10.005Z,21.08
2022-11-18T16:46:37.921Z,20.85
2022-11-18T16:49:05.677Z,22.40
2022-11-18T16:51:33.905Z,21.10
2022-11-18T16:54:05.589Z,21.85
2022-11-18T16:56:33.743Z,20.95
2022-11-18T16:59:05.040Z,22.70
2022-11-18T17:01:33.211Z,22.48
2022-11-18T17:04:01.091Z,21.00
2022-11-18T17:06:28.480Z,24.50
2022-11-18T17:08:54.921Z,21.98
2022-11-18T17:11:21.340Z,24.58
2022-11-18T17:13:48.308Z,23.77
2022-11-18T17:16:21.865Z,22.63
2022-11-18T17:18:54.518Z,23.67
2022-11-18T17:21:21.900Z,23.25
2022-11-18T17:23:48.787Z,23.90
2022-11-18T17:26:18.728Z,23.52
2022-11-18T17:28:45.563Z,24.70
2022-11-18T17:31:13.984Z,26.20
2022-11-18T17:33:41.197Z,24.52
2022-11-18T17:36:10.049Z,25.23
2022-11-18T17:38:37.863Z,23.90
2022-11-18T17:41:04.463Z,24.20
2022-11-18T17:43:31.139Z,23.65
2022-11-18T17:45:58.998Z,24.80
2022-11-18T17:48:26.718Z,24.45
2022-11-18T17:50:53.396Z,25.38
2022-11-18T17:53:20.652Z,25.20
2022-11-18T17:55:47.152Z,27.30
2022-11-18T17:58:13.687Z,27.60
2022-11-18T18:00:40.252Z,27.48
2022-11-18T18:03:06.619Z,27.08
2022-11-18T18:05:33.075Z,27.30
2022-11-18T18:07:59.451Z,25.45
2022-11-18T18:10:26.285Z,26.35
2022-11-18T18:13:11.364Z,27.30
2022-11-18T18:15:38.098Z,26.25
2022-11-18T18:18:04.901Z,26.67
2022-11-18T18:20:31.276Z,27.70
2022-11-18T18:22:57.655Z,27.50
2022-11-18T18:25:24.097Z,28.50
2022-11-18T18:27:50.508Z,29.63
2022-11-18T18:30:17.244Z,28.25
2022-11-18T18:32:45.892Z,27.55
2022-11-18T18:35:14.558Z,29.52
2022-11-18T18:37:40.927Z,28.70
2022-11-18T18:40:07.816Z,28.92
2022-11-18T18:42:34.200Z,27.98
2022-11-18T18:45:19.385Z,29.90
2022-11-18T18:47:45.806Z,29.88
2022-11-18T18:50:12.187Z,31.75
2022-11-18T18:52:38.558Z,33.38
2022-11-18T18:55:05.239Z,33.42
2022-11-18T18:57:31.633Z,34.10
2022-11-18T18:59:58.025Z,31.95
2022-11-18T19:02:24.412Z,33.75
2022-11-18T19:04:52.324Z,35.55
2022-11-18T19:07:19.112Z,36.50
2022-11-18T19:09:45.596Z,37.67
2022-11-18T19:12:30.792Z,36.00
2022-11-18T19:14:57.242Z,35.60
2022-11-18T19:17:23.792Z,37.05
2022-11-18T19:20:08.839Z,37.10
2022-11-18T19:22:35.390Z,35.78
2022-11-18T19:25:02.096Z,36.35
2022-11-18T19:27:28.970Z,38.42
2022-11-18T19:29:55.346Z,36.45
2022-11-18T19:32:21.702Z,35.60
2022-11-18T19:34:48.114Z,34.60
2022-11-18T19:37:14.476Z,34.97
2022-11-18T19:39:40.908Z,35.25
2022-11-18T19:42:07.601Z,34.58
2022-11-18T19:44:34.198Z,34.90
2022-11-18T19:47:00.667Z,33.90
2022-11-18T19:49:27.182Z,35.35
2022-11-18T19:51:53.527Z,35.38
2022-11-18T19:54:19.962Z,34.55
2022-11-18T19:56:46.482Z,34.70
2022-11-18T19:59:12.993Z,34.38
2022-11-18T20:01:39.747Z,33.95
2022-11-18T20:04:06.362Z,34.22
2022-11-18T20:06:34.542Z,34.47
2022-11-18T20:09:00.968Z,32.80
2022-11-18T20:11:28.019Z,34.40
2022-11-18T20:13:54.427Z,34.80
2022-11-18T20:16:23.522Z,34.53
2022-11-18T20:18:57.734Z,33.33
2022-11-18T20:21:25.120Z,33.05
2022-11-18T20:23:54.687Z,34.85
2022-11-18T20:26:23.601Z,33.97
2022-11-18T20:28:54.418Z,35.42
2022-11-18T20:31:23.951Z,36.42
2022-11-18T20:33:51.741Z,35.42
2022-11-18T20:36:20.428Z,35.92
2022-11-18T20:38:52.186Z,38.10
2022-11-18T20:41:20.184Z,29.75
2022-11-18T20:43:47.994Z,36.47
2022-11-18T20:46:20.056Z,36.60
2022-11-18T20:48:47.265Z,36.00
2022-11-18T20:51:14.908Z,35.65
2022-11-18T20:53:42.641Z,35.85
2022-11-18T20:56:10.309Z,36.08
2022-11-18T20:58:36.694Z,36.22
2022-11-18T21:01:10.374Z,36.50
2022-11-18T21:03:37.328Z,36.80
2022-11-18T21:06:13.606Z,36.47
2022-11-18T21:08:41.324Z,36.80
2022-11-18T21:11:10.101Z,35.80
2022-11-18T21:13:55.169Z,35.13
2022-11-18T21:16:21.773Z,34.33
2022-11-18T21:18:48.300Z,34.17
2022-11-18T21:21:33.610Z,33.60
2022-11-18T21:24:01.304Z,32.90
2022-11-18T21:26:32.061Z,33.83
2022-11-18T21:29:00.093Z,32.03
2022-11-18T21:31:27.719Z,34.08
2022-11-18T21:33:54.663Z,33.90
2022-11-18T21:36:21.955Z,33.95
2022-11-18T21:38:48.709Z,34.00
2022-11-18T21:41:15.617Z,31.90
2022-11-18T21:46:28.759Z,32.78
2022-11-18T21:48:59.890Z,31.95
2022-11-18T21:51:27.144Z,29.98
2022-11-18T21:53:53.933Z,32.33
2022-11-18T21:56:22.436Z,32.05
2022-11-18T21:58:49.760Z,32.15
2022-11-18T22:01:18.028Z,32.70
2022-11-18T22:03:55.226Z,32.20
2022-11-18T22:06:23.218Z,31.85
2022-11-18T22:08:50.417Z,32.88
2022-11-18T22:11:16.928Z,30.73
2022-11-18T22:13:43.736Z,32.22
2022-11-18T22:16:12.956Z,32.00
2022-11-18T22:18:42.011Z,32.50
2022-11-18T22:21:13.875Z,33.83
2022-11-18T22:23:40.585Z,33.47
2022-11-18T22:26:10.470Z,34.10
2022-11-18T22:28:37.366Z,33.05
2022-11-18T22:31:05.869Z,32.33
2022-11-18T22:33:34.417Z,33.05
2022-11-18T22:36:02.445Z,31.77
2022-11-18T22:38:29.617Z,33.70
2022-11-18T22:41:04.746Z,34.33
2022-11-18T22:43:31.921Z,31.50
2022-11-18T22:46:08.382Z,31.17
2022-11-18T22:48:35.048Z,29.30
2022-11-18T22:51:06.227Z,31.80
2022-11-18T22:53:33.307Z,30.83
2022-11-18T22:56:03.582Z,32.92
2022-11-18T22:58:30.245Z,29.92
2022-11-18T23:01:06.181Z,31.40
2022-11-18T23:03:32.996Z,30.70
2022-11-18T23:05:59.930Z,29.90
2022-11-18T23:08:27.184Z,31.35
2022-11-18T23:10:54.015Z,30.10
2022-11-18T23:13:39.090Z,30.65
2022-11-18T23:16:05.774Z,31.45
2022-11-18T23:18:32.155Z,29.75
2022-11-18T23:21:02.694Z,28.65
2022-11-18T23:23:29.841Z,29.10
2022-11-18T23:26:06.748Z,29.50
2022-11-18T23:28:33.478Z,29.08
2022-11-18T23:31:11.655Z,28.77
2022-11-18T23:33:38.796Z,28.08
2022-11-18T23:36:07.117Z,27.10
2022-11-18T23:38:34.479Z,28.20
2022-11-18T23:41:03.025Z,26.60
2022-11-18T23:43:29.959Z,26.50
2022-11-18T23:45:57.365Z,28.23
2022-11-18T23:48:25.113Z,26.67
2022-11-18T23:50:58.056Z,29.10
2022-11-18T23:53:25.865Z,28.15
2022-11-18T23:55:52.572Z,27.50
2022-11-18T23:58:19.377Z,27.08
